Сообщение об ошибке

  • Warning: ini_set(): Headers already sent. You cannot change the session module's ini settings at this time in drupal_environment_initialize() (line 699 of /home/a/auditpro/2.auditpro.beget.tech/public_html/st/includes/bootstrap.inc).
  • Warning: ini_set(): Headers already sent. You cannot change the session module's ini settings at this time in drupal_environment_initialize() (line 700 of /home/a/auditpro/2.auditpro.beget.tech/public_html/st/includes/bootstrap.inc).
  • Warning: ini_set(): Headers already sent. You cannot change the session module's ini settings at this time in drupal_environment_initialize() (line 701 of /home/a/auditpro/2.auditpro.beget.tech/public_html/st/includes/bootstrap.inc).
  • Warning: ini_set(): Headers already sent. You cannot change the session module's ini settings at this time in drupal_environment_initialize() (line 704 of /home/a/auditpro/2.auditpro.beget.tech/public_html/st/includes/bootstrap.inc).
  • Warning: ini_set(): Headers already sent. You cannot change the session module's ini settings at this time in drupal_environment_initialize() (line 706 of /home/a/auditpro/2.auditpro.beget.tech/public_html/st/includes/bootstrap.inc).
  • Warning: ini_set(): Headers already sent. You cannot change the session module's ini settings at this time in include_once() (line 290 of /home/a/auditpro/2.auditpro.beget.tech/public_html/st/sites/default/settings.php).
  • Warning: ini_set(): Headers already sent. You cannot change the session module's ini settings at this time in include_once() (line 291 of /home/a/auditpro/2.auditpro.beget.tech/public_html/st/sites/default/settings.php).
  • Warning: ini_set(): Headers already sent. You cannot change the session module's ini settings at this time in include_once() (line 299 of /home/a/auditpro/2.auditpro.beget.tech/public_html/st/sites/default/settings.php).
  • Warning: ini_set(): Headers already sent. You cannot change the session module's ini settings at this time in include_once() (line 306 of /home/a/auditpro/2.auditpro.beget.tech/public_html/st/sites/default/settings.php).
  • Warning: ini_set(): Headers already sent. You cannot change the session module's ini settings at this time in drupal_settings_initialize() (line 826 of /home/a/auditpro/2.auditpro.beget.tech/public_html/st/includes/bootstrap.inc).
  • Warning: ini_set(): Headers already sent. You cannot change the session module's ini settings at this time in drupal_settings_initialize() (line 835 of /home/a/auditpro/2.auditpro.beget.tech/public_html/st/includes/bootstrap.inc).
  • Warning: session_name(): Cannot change session name when headers already sent in drupal_settings_initialize() (line 838 of /home/a/auditpro/2.auditpro.beget.tech/public_html/st/includes/bootstrap.inc).

Кокшетау

СКИДКИ НА СМАРТФОНЫ!

Карта отелей и гостиниц, располагающихся рядом с аэропортом Кокшетау :

Кокшетау Акмолинская область 53° 19' 48.9612" N, 69° 35' 44.7" E
Код аэродрома ИКАО
UACK
Код аэродрома RU
УАЦК
Координаты
N53.33027° E069.59575°
Превышение над уровнем моря
270
Основная полоса
02L/20R
Курс магнитный
020,5/200,5
Длина основной ВПП
2849
Ширина основной ВПП
45
Покрытие основной ВПП
Твёрдое (асфальтобетон)
Освещение ВПП
Постоянное
Тип: 
Аэродром
Принадлежность: 
ГА
Статус: 
Действующий
Страна: 
Казахстан
Регион: 
Акмолинская область
Дополнительная информация: 
Эксплуатант: АО Авиакомпания «Кокшетау». Классификационное число ВПП(PCN) 22/F/С/Y/T. Максимальный взлётный вес ВС — 171 тонна. Международный пассажирский терминал, оборудованный посадочной галереей с двумя телетрапами, введён в эксплуатацию в апреле 2012 года. Терминал обладает пропускной способностью 200 пассажиров в час.
Погода: 

Авиационная погода в Кокшетау

Регион: 
Погода METAR: 
UACK 301030Z 17002MPS CAVOK M12/M16 Q1022 NOSIG RMK QFE743/0990
Время наблюдения
2023-01-30T10:30:00Z
Температура C
-12.0
Точка росы
-16.0
Направление ветра
170
Скорость ветра (узлы)
4
Метео видимость
6.21
Облачность
CAVOK
Нижняя граница облачности (футы)
Явления погоды
Условия полета
VFR
Аэропорт подробнее: 

Скидки на навигаторы!

Найти трансфер

С помощью этой формы Вы можете найти трансфер из аэропорта Кокшетау в город, аэропорт или вокзал:

Погода в аэропортах:

Авиационная погода в Витебске

Регион: 
Погода METAR: 
UMII 301021Z 20009G13MPS 4400 -SN BLSN OVC009 M01/M02 Q0995 TEMPO 2000 SN BKN005
Время наблюдения
2023-01-30T10:21:00Z
Температура C
-1.0
Точка росы
-2.0
Направление ветра
200
Скорость ветра (узлы)
17
Метео видимость
2.73
Облачность
OVC
Нижняя граница облачности (футы)
900
Явления погоды
-SN BLSN
Условия полета
IFR
OVC – сплошная облачность;
-SN – слабый снег, BLSN – метель низовая или общая;

Авиационная погода в Лаппеэнранта

Регион: 
Погода METAR: 
EFLP 301920Z AUTO 21010KT 4800 -FZDZSN OVC006 00/M00 Q0971
Время наблюдения
2023-01-30T19:20:00Z
Температура C
0.0
Точка росы
0.0
Направление ветра
210
Скорость ветра (узлы)
10
Метео видимость
2.98
Облачность
OVC
Нижняя граница облачности (футы)
600
Явления погоды
-FZDZ SN
Условия полета
IFR
OVC – сплошная облачность;
-FZDZ - слабая переохлаждённая морось; SN – снег;

Авиационная погода в Архангельске

Регион: 
Погода METAR: 
ULAA 301930Z 16005G10MPS 100V230 5000 -SN BKN011 M03/M04 Q0981 R08/590533 NOSIG RMK QFE734/0979
Время наблюдения
2023-01-30T19:30:00Z
Температура C
-3.0
Точка росы
-4.0
Направление ветра
160
Скорость ветра (узлы)
10
Метео видимость
3.11
Облачность
BKN
Нижняя граница облачности (футы)
1100
Явления погоды
-SN
Условия полета
MVFR
Аэропорт подробнее: 
BKN – значительная (рассеянная, разорванная) облачность;
-SN – слабый снег;

Авиационная погода в Куусамо

Регион: 
Погода METAR: 
EFKS 301920Z 02007KT 9999 -SN OVC006 M03/M04 Q0971
Время наблюдения
2023-01-30T19:20:00Z
Температура C
-3.0
Точка росы
-4.0
Направление ветра
20
Скорость ветра (узлы)
7
Метео видимость
6.21
Облачность
OVC
Нижняя граница облачности (футы)
600
Явления погоды
-SN
Условия полета
IFR
OVC – сплошная облачность;
-SN – слабый снег;